createdAt,value
2023-03-20T00:02:23.180Z,100966.34
2023-03-20T00:04:54.686Z,100962.78
2023-03-20T00:07:26.424Z,100964.50
2023-03-20T00:09:57.845Z,100961.84
2023-03-20T00:12:29.279Z,100942.50
2023-03-20T00:15:05.185Z,100917.84
2023-03-20T00:17:36.687Z,100963.50
2023-03-20T00:20:14.589Z,100949.34
2023-03-20T00:22:46.042Z,100950.22
2023-03-20T00:25:20.410Z,100957.19
2023-03-20T00:27:52.234Z,100932.63
2023-03-20T00:30:29.682Z,100871.09
2023-03-20T00:33:01.303Z,100939.56
2023-03-20T00:35:33.403Z,100891.25
2023-03-20T00:38:04.883Z,100863.16
2023-03-20T00:40:36.407Z,100931.56
2023-03-20T00:43:10.653Z,100903.50
2023-03-20T00:45:45.461Z,100897.31
2023-03-20T00:48:17.070Z,100940.31
2023-03-20T00:50:49.461Z,100940.34
2023-03-20T00:53:20.866Z,100935.91
2023-03-20T00:55:52.241Z,100934.13
2023-03-20T00:58:23.659Z,100869.22
2023-03-20T01:00:55.433Z,100859.50
2023-03-20T01:03:29.893Z,100934.16
2023-03-20T01:06:01.224Z,100945.53
2023-03-20T01:08:32.599Z,100930.59
2023-03-20T01:11:04.144Z,100948.16
2023-03-20T01:13:38.306Z,100936.72
2023-03-20T01:16:24.855Z,100909.53
2023-03-20T01:18:56.764Z,100934.13
2023-03-20T01:21:28.041Z,100882.38
2023-03-20T01:23:59.323Z,100961.38
2023-03-20T01:26:42.308Z,100900.75
2023-03-20T01:29:19.877Z,100957.84
2023-03-20T01:31:52.193Z,100937.72
2023-03-20T01:34:23.542Z,100947.38
2023-03-20T01:36:57.927Z,100941.13
2023-03-20T01:39:34.017Z,100955.19
2023-03-20T01:42:06.143Z,100913.13
2023-03-20T01:44:38.234Z,100938.66
2023-03-20T01:47:19.093Z,100942.16
2023-03-20T01:50:28.583Z,100950.94
2023-03-20T01:53:30.206Z,100965.94
2023-03-20T01:56:01.746Z,100894.88
2023-03-20T01:58:38.814Z,100891.38
2023-03-20T02:01:14.045Z,100934.38
2023-03-20T02:03:50.503Z,100942.28
2023-03-20T02:06:23.652Z,100941.38
2023-03-20T02:08:55.245Z,100970.41
2023-03-20T02:11:26.806Z,100940.47
2023-03-20T02:14:00.878Z,100949.22
2023-03-20T02:16:32.378Z,100935.19
2023-03-20T02:19:06.224Z,100950.06
2023-03-20T02:22:03.498Z,100885.13
2023-03-20T02:25:03.380Z,100900.94
2023-03-20T02:27:42.984Z,100958.97
2023-03-20T02:30:32.923Z,100959.00
2023-03-20T02:33:36.781Z,100843.13
2023-03-20T02:36:32.016Z,100948.44
2023-03-20T02:39:40.303Z,100956.41
2023-03-20T02:42:44.346Z,100949.38
2023-03-20T02:45:42.987Z,100928.28
2023-03-20T02:48:26.506Z,100946.78
2023-03-20T02:51:03.513Z,100945.03
2023-03-20T02:53:42.893Z,100944.16
2023-03-20T02:56:57.286Z,100923.88
2023-03-20T02:59:46.382Z,100933.53
2023-03-20T03:02:32.269Z,100934.47
2023-03-20T03:05:12.563Z,100859.06
2023-03-20T03:07:48.007Z,100930.19
2023-03-20T03:10:36.815Z,100924.91
2023-03-20T03:13:15.182Z,100845.97
2023-03-20T03:15:51.033Z,100851.25
2023-03-20T03:18:26.380Z,100863.59
2023-03-20T03:21:01.076Z,100860.91
2023-03-20T03:23:37.309Z,100892.53
2023-03-20T03:26:10.538Z,100933.72
2023-03-20T03:28:48.450Z,100889.00
2023-03-20T03:31:21.957Z,100894.31
2023-03-20T03:33:57.117Z,100915.44
2023-03-20T03:36:51.571Z,100863.63
2023-03-20T03:39:34.680Z,100834.69
2023-03-20T03:42:24.488Z,100904.91
2023-03-20T03:45:12.490Z,100858.44
2023-03-20T03:48:07.324Z,100902.34
2023-03-20T03:50:48.322Z,100840.97
2023-03-20T03:53:25.216Z,100891.84
2023-03-20T03:56:02.657Z,100877.84
2023-03-20T03:58:45.325Z,100885.78
2023-03-20T04:01:18.165Z,100891.03
2023-03-20T04:03:56.161Z,100897.19
2023-03-20T04:06:27.976Z,100911.28
2023-03-20T04:08:59.469Z,100913.94
2023-03-20T04:11:31.215Z,100890.16
2023-03-20T04:14:02.666Z,100906.94
2023-03-20T04:16:34.087Z,100863.00
2023-03-20T04:19:05.447Z,100916.59
2023-03-20T04:21:36.980Z,100901.66
2023-03-20T04:24:08.462Z,100899.88
2023-03-20T04:26:40.479Z,100906.84
2023-03-20T04:29:11.908Z,100904.25
2023-03-20T04:31:43.258Z,100913.84
2023-03-20T04:34:15.028Z,100900.63
2023-03-20T04:36:47.326Z,100893.59
2023-03-20T04:39:18.672Z,100857.63
2023-03-20T04:41:52.062Z,100818.09
2023-03-20T04:44:23.489Z,100894.53
2023-03-20T04:46:54.939Z,100915.63
2023-03-20T04:49:28.648Z,100898.03
2023-03-20T04:52:00.312Z,100923.53
2023-03-20T04:54:31.734Z,100918.28
2023-03-20T04:57:03.359Z,100908.53
2023-03-20T04:59:34.661Z,100896.31
2023-03-20T05:02:06.221Z,100890.09
2023-03-20T05:04:37.617Z,100887.44
2023-03-20T05:07:09.117Z,100892.69
2023-03-20T05:09:40.401Z,100884.81
2023-03-20T05:12:11.846Z,100890.06
2023-03-20T05:14:43.290Z,100777.69
2023-03-20T05:17:14.629Z,100895.34
2023-03-20T05:19:45.956Z,100905.84
2023-03-20T05:22:18.319Z,100895.34
2023-03-20T05:24:49.690Z,100881.34
2023-03-20T05:27:21.102Z,100821.66
2023-03-20T05:29:52.490Z,100886.63
2023-03-20T05:32:23.983Z,100902.50
2023-03-20T05:34:55.356Z,100867.38
2023-03-20T05:37:27.035Z,100925.38
2023-03-20T05:39:58.363Z,100902.53
2023-03-20T05:42:29.650Z,100849.88
2023-03-20T05:45:01.366Z,100918.44
2023-03-20T05:47:32.899Z,100849.94
2023-03-20T05:50:04.502Z,100929.03
2023-03-20T05:52:36.290Z,100898.31
2023-03-20T05:55:08.125Z,100924.66
2023-03-20T05:57:39.459Z,100887.72
2023-03-20T06:00:11.407Z,100921.13
2023-03-20T06:02:43.980Z,100928.16
2023-03-20T06:05:16.386Z,100924.66
2023-03-20T06:07:47.733Z,100936.13
2023-03-20T06:10:20.624Z,100900.94
2023-03-20T06:12:52.013Z,100953.66
2023-03-20T06:15:25.204Z,100948.34
2023-03-20T06:17:57.010Z,100927.25
2023-03-20T06:20:28.577Z,100897.38
2023-03-20T06:23:00.298Z,100915.81
2023-03-20T06:25:31.660Z,100941.25
2023-03-20T06:28:03.014Z,100970.25
2023-03-20T06:30:34.346Z,100878.00
2023-03-20T06:33:09.600Z,100972.88
2023-03-20T06:35:41.507Z,100885.06
2023-03-20T06:38:12.849Z,100972.88
2023-03-20T06:40:45.118Z,100978.16
2023-03-20T06:43:16.746Z,100914.88
2023-03-20T06:45:48.493Z,100923.66
2023-03-20T06:48:22.535Z,100918.38
2023-03-20T06:50:53.949Z,100899.03
2023-03-20T06:53:25.962Z,100956.94
2023-03-20T06:55:57.289Z,100939.34
2023-03-20T06:58:28.595Z,100879.53
2023-03-20T07:00:59.941Z,100881.28
2023-03-20T07:03:31.368Z,100977.88
2023-03-20T07:06:03.026Z,100932.22
2023-03-20T07:08:35.267Z,100939.22
2023-03-20T07:11:07.063Z,100966.38
2023-03-20T07:13:38.612Z,100933.91
2023-03-20T07:16:10.161Z,100953.16
2023-03-20T07:18:41.644Z,100962.75
2023-03-20T07:21:18.666Z,100989.13
2023-03-20T07:23:49.978Z,100975.97
2023-03-20T07:26:21.385Z,100973.44
2023-03-20T07:28:52.962Z,100983.16
2023-03-20T07:31:26.854Z,100976.09
2023-03-20T07:33:58.572Z,100969.03
2023-03-20T07:36:29.919Z,100986.59
2023-03-20T07:39:01.210Z,100932.94
2023-03-20T07:41:32.510Z,100974.25
2023-03-20T07:44:04.076Z,100952.28
2023-03-20T07:46:35.576Z,100962.84
2023-03-20T07:49:07.564Z,100900.47
2023-03-20T07:51:38.962Z,100922.44
2023-03-20T07:54:10.396Z,100903.06
2023-03-20T07:56:42.229Z,100982.88
2023-03-20T07:59:13.800Z,100983.75
2023-03-20T08:01:45.368Z,100981.13
2023-03-20T08:04:19.456Z,100986.38
2023-03-20T08:06:51.463Z,100994.28
2023-03-20T08:09:23.128Z,100986.44
2023-03-20T08:11:54.433Z,100907.47
2023-03-20T08:14:25.798Z,100995.22
2023-03-20T08:17:12.957Z,100932.81
2023-03-20T08:19:45.908Z,100973.22
2023-03-20T08:22:17.235Z,101006.53
2023-03-20T08:24:48.536Z,101005.72
2023-03-20T08:27:19.826Z,100997.00
2023-03-20T08:29:51.587Z,100933.66
2023-03-20T08:32:22.905Z,100962.59
2023-03-20T08:34:57.191Z,101026.75
2023-03-20T08:37:28.622Z,101028.44
2023-03-20T08:40:00.290Z,101006.47
2023-03-20T08:42:31.877Z,101014.38
2023-03-20T08:45:03.382Z,101026.69
2023-03-20T08:47:34.702Z,100997.72
2023-03-20T08:50:07.333Z,100976.69
2023-03-20T08:52:43.710Z,101009.19
2023-03-20T08:55:16.341Z,100966.00
2023-03-20T08:57:47.697Z,100966.78
2023-03-20T09:00:20.481Z,101021.94
2023-03-20T09:02:52.209Z,101011.44
2023-03-20T09:05:23.887Z,101009.56
2023-03-20T09:07:55.187Z,101031.44
2023-03-20T09:10:26.481Z,101017.31
2023-03-20T09:12:57.786Z,101026.28
2023-03-20T09:15:29.273Z,101010.44
2023-03-20T09:18:02.850Z,100937.63
2023-03-20T09:20:35.272Z,100952.53
2023-03-20T09:23:06.713Z,101028.09
2023-03-20T09:25:38.269Z,100996.41
2023-03-20T09:28:09.852Z,101010.47
2023-03-20T09:30:43.312Z,101027.28
2023-03-20T09:33:14.856Z,101021.09
2023-03-20T09:35:46.914Z,101013.25
2023-03-20T09:38:18.504Z,101011.56
2023-03-20T09:40:49.802Z,101031.66
2023-03-20T09:43:41.014Z,101021.03
2023-03-20T09:46:49.327Z,101017.53
2023-03-20T09:49:58.282Z,101040.31
2023-03-20T09:52:37.969Z,100956.03
2023-03-20T09:55:20.182Z,101042.03
2023-03-20T09:57:58.494Z,101018.97
2023-03-20T10:00:34.547Z,101006.75
2023-03-20T10:03:18.037Z,101027.66
2023-03-20T10:05:52.645Z,101031.06
2023-03-20T10:08:29.380Z,101041.47
2023-03-20T10:11:06.841Z,101041.44
2023-03-20T10:13:38.188Z,101056.56
2023-03-20T10:16:45.169Z,101036.44
2023-03-20T10:19:31.183Z,101020.72
2023-03-20T10:22:11.249Z,101046.94
2023-03-20T10:24:49.780Z,101026.59
2023-03-20T10:27:44.168Z,101046.78
2023-03-20T10:30:27.533Z,101053.84
2023-03-20T10:33:14.142Z,101029.97
2023-03-20T10:36:21.554Z,101009.44
2023-03-20T10:39:02.021Z,100997.38
2023-03-20T10:41:38.134Z,101009.31
2023-03-20T10:44:17.007Z,101003.69
2023-03-20T10:46:52.767Z,100999.97
2023-03-20T10:49:40.980Z,100926.94
2023-03-20T10:52:18.050Z,100946.31
2023-03-20T10:54:58.996Z,100948.09
2023-03-20T10:57:38.054Z,101007.16
2023-03-20T11:00:21.298Z,101007.44
2023-03-20T11:02:52.900Z,100944.50
2023-03-20T11:05:30.653Z,100983.88
2023-03-20T11:08:08.136Z,100980.50
2023-03-20T11:10:42.011Z,100989.03
2023-03-20T11:13:30.940Z,100972.28
2023-03-20T11:16:18.302Z,100994.28
2023-03-20T11:18:52.209Z,101010.25
2023-03-20T11:21:27.626Z,100982.38
2023-03-20T11:23:59.009Z,100924.59
2023-03-20T11:26:39.423Z,100954.31
2023-03-20T11:29:28.961Z,100985.75
2023-03-20T11:32:06.734Z,100945.38
2023-03-20T11:34:40.854Z,100970.53
2023-03-20T11:37:25.794Z,100953.69
2023-03-20T11:40:14.137Z,100966.38
2023-03-20T11:43:02.691Z,100886.81
2023-03-20T11:45:43.428Z,100946.00
2023-03-20T11:48:25.845Z,100959.66
2023-03-20T11:51:03.664Z,100973.50
2023-03-20T11:53:39.855Z,100962.75
2023-03-20T11:56:12.750Z,100969.03
2023-03-20T11:59:18.398Z,100967.66
2023-03-20T12:01:55.665Z,100949.69
2023-03-20T12:04:37.608Z,100927.81
2023-03-20T12:07:36.995Z,100968.34
2023-03-20T12:10:13.960Z,100887.97
2023-03-20T12:12:57.843Z,100949.34
2023-03-20T12:15:37.011Z,100890.38
2023-03-20T12:18:21.828Z,100893.44
2023-03-20T12:21:18.167Z,100976.56
2023-03-20T12:24:22.540Z,100893.00
2023-03-20T12:27:18.307Z,100903.34
2023-03-20T12:29:58.821Z,100969.84
2023-03-20T12:32:51.288Z,100938.84
2023-03-20T12:35:37.551Z,100910.16
2023-03-20T12:38:23.071Z,100962.28
2023-03-20T12:41:03.418Z,100941.41
2023-03-20T12:44:02.232Z,100957.03
2023-03-20T12:46:51.443Z,100934.34
2023-03-20T12:49:51.778Z,100904.75
2023-03-20T12:52:50.693Z,100915.34
2023-03-20T12:55:36.213Z,100944.84
2023-03-20T12:58:35.290Z,100933.16
2023-03-20T13:01:25.997Z,100946.97
2023-03-20T13:04:23.522Z,100905.47
2023-03-20T13:07:02.505Z,100888.47
2023-03-20T13:10:01.958Z,100937.78
2023-03-20T13:12:44.956Z,100859.56
2023-03-20T13:15:37.459Z,100940.63
2023-03-20T13:18:46.360Z,100929.53
2023-03-20T13:21:56.567Z,100918.69
2023-03-20T13:24:47.374Z,100880.03
2023-03-20T13:27:30.893Z,100918.38
2023-03-20T13:30:28.484Z,100873.91
2023-03-20T13:33:16.356Z,100843.06
2023-03-20T13:36:24.225Z,100916.06
2023-03-20T13:39:28.586Z,100915.88
2023-03-20T13:42:06.600Z,100855.06
2023-03-20T13:44:41.110Z,100843.97
2023-03-20T13:47:18.622Z,100892.28
2023-03-20T13:50:04.911Z,100906.94
2023-03-20T13:52:45.520Z,100872.25
2023-03-20T13:55:23.736Z,100918.94
2023-03-20T13:58:24.835Z,100842.88
2023-03-20T14:01:05.579Z,100915.47
2023-03-20T14:03:45.145Z,100829.88
2023-03-20T14:06:39.320Z,100908.56
2023-03-20T14:09:32.486Z,100913.84
2023-03-20T14:12:11.212Z,100886.66
2023-03-20T14:14:49.349Z,100864.09
2023-03-20T14:17:26.500Z,100909.63
2023-03-20T14:20:16.483Z,100813.97
2023-03-20T14:22:49.022Z,100908.03
2023-03-20T14:25:23.689Z,100833.63
2023-03-20T14:28:10.044Z,100913.53
2023-03-20T14:30:50.697Z,100884.75
2023-03-20T14:33:23.479Z,100915.59
2023-03-20T14:36:04.052Z,100910.34
2023-03-20T14:38:44.414Z,100899.88
2023-03-20T14:41:22.696Z,100860.44
2023-03-20T14:44:08.953Z,100895.38
2023-03-20T14:46:51.782Z,100899.91
2023-03-20T14:49:34.651Z,100817.56
2023-03-20T14:52:42.597Z,100884.88
2023-03-20T14:55:28.758Z,100897.25
2023-03-20T14:58:25.206Z,100891.13
2023-03-20T15:01:03.185Z,100837.63
2023-03-20T15:03:40.566Z,100814.19
2023-03-20T15:06:12.243Z,100864.09
2023-03-20T15:09:06.698Z,100898.22
2023-03-20T15:11:42.484Z,100876.28
2023-03-20T15:14:22.261Z,100894.75
2023-03-20T15:16:59.341Z,100885.19
2023-03-20T15:19:30.678Z,100856.28
2023-03-20T15:22:02.056Z,100899.34
2023-03-20T15:24:33.657Z,100892.97
2023-03-20T15:27:05.257Z,100902.34
2023-03-20T15:29:36.596Z,100903.22
2023-03-20T15:32:14.953Z,100896.16
2023-03-20T15:34:48.953Z,100904.16
2023-03-20T15:37:23.673Z,100811.34
2023-03-20T15:40:00.228Z,100871.06
2023-03-20T15:42:31.870Z,100884.28
2023-03-20T15:45:21.809Z,100819.28
2023-03-20T15:48:00.459Z,100837.72
2023-03-20T15:50:35.369Z,100808.97
2023-03-20T15:53:11.111Z,100824.69
2023-03-20T15:55:50.666Z,100876.50
2023-03-20T15:58:22.439Z,100881.75
2023-03-20T16:00:53.906Z,100872.00
2023-03-20T16:03:27.813Z,100890.34
2023-03-20T16:06:01.183Z,100882.44
2023-03-20T16:08:34.034Z,100873.75
2023-03-20T16:11:08.207Z,100843.09
2023-03-20T16:13:51.562Z,100861.50
2023-03-20T16:16:24.496Z,100793.25
2023-03-20T16:18:58.117Z,100882.63
2023-03-20T16:21:35.572Z,100863.31
2023-03-20T16:24:11.324Z,100881.00
2023-03-20T16:26:47.763Z,100804.09
2023-03-20T16:29:22.821Z,100897.13
2023-03-20T16:32:07.230Z,100846.47
2023-03-20T16:34:39.597Z,100850.00
2023-03-20T16:37:29.252Z,100848.19
2023-03-20T16:40:19.196Z,100785.97
2023-03-20T16:42:54.714Z,100846.50
2023-03-20T16:45:34.852Z,100775.59
2023-03-20T16:48:11.987Z,100864.16
2023-03-20T16:50:45.284Z,100830.19
2023-03-20T16:53:21.546Z,100831.28
2023-03-20T16:55:54.852Z,100879.59
2023-03-20T16:58:32.898Z,100871.00
2023-03-20T17:01:08.527Z,100791.31
2023-03-20T17:03:43.896Z,100888.75
2023-03-20T17:06:21.600Z,100884.41
2023-03-20T17:09:01.290Z,100879.28
2023-03-20T17:11:36.279Z,100835.59
2023-03-20T17:14:07.598Z,100883.09
2023-03-20T17:16:40.208Z,100888.41
2023-03-20T17:19:18.186Z,100884.84
2023-03-20T17:21:50.047Z,100876.25
2023-03-20T17:24:21.446Z,100873.66
2023-03-20T17:26:55.879Z,100836.88
2023-03-20T17:29:27.303Z,100863.28
2023-03-20T17:31:58.736Z,100905.41
2023-03-20T17:34:30.347Z,100903.75
2023-03-20T17:37:03.307Z,100824.78
2023-03-20T17:39:34.686Z,100866.88
2023-03-20T17:42:18.687Z,100872.09
2023-03-20T17:44:50.587Z,100867.81
2023-03-20T17:47:24.053Z,100852.00
2023-03-20T17:49:55.972Z,100824.91
2023-03-20T17:52:28.425Z,100893.34
2023-03-20T17:54:59.808Z,100918.88
2023-03-20T17:57:33.236Z,100906.59
2023-03-20T18:00:20.323Z,100910.09
2023-03-20T18:02:51.736Z,100866.22
2023-03-20T18:05:24.452Z,100903.97
2023-03-20T18:07:55.848Z,100906.63
2023-03-20T18:10:31.961Z,100904.88
2023-03-20T18:13:03.341Z,100918.03
2023-03-20T18:15:35.103Z,100904.09
2023-03-20T18:18:08.729Z,100921.69
2023-03-20T18:20:41.191Z,100898.00
2023-03-20T18:23:14.109Z,100902.38
2023-03-20T18:25:45.599Z,100863.75
2023-03-20T18:28:22.675Z,100905.03
2023-03-20T18:30:54.250Z,100919.09
2023-03-20T18:33:27.633Z,100884.88
2023-03-20T18:35:59.029Z,100909.47
2023-03-20T18:38:30.660Z,100905.97
2023-03-20T18:41:02.004Z,100919.16
2023-03-20T18:43:33.342Z,100935.06
2023-03-20T18:46:05.012Z,100899.06
2023-03-20T18:48:36.358Z,100911.44
2023-03-20T18:51:08.014Z,100868.44
2023-03-20T18:53:41.029Z,100835.16
2023-03-20T18:56:17.356Z,100863.25
2023-03-20T18:58:49.313Z,100916.03
2023-03-20T19:01:21.356Z,100923.00
2023-03-20T19:03:53.713Z,100861.63
2023-03-20T19:06:25.760Z,100919.56
2023-03-20T19:08:57.303Z,100916.97
2023-03-20T19:11:28.628Z,100921.38
2023-03-20T19:13:59.961Z,100916.09
2023-03-20T19:16:35.020Z,100917.00
2023-03-20T19:19:08.298Z,100840.69
2023-03-20T19:21:39.859Z,100927.59
2023-03-20T19:24:11.297Z,100902.16
2023-03-20T19:26:42.607Z,100911.88
2023-03-20T19:29:14.526Z,100920.75
2023-03-20T19:31:46.973Z,100901.38
2023-03-20T19:34:51.850Z,100904.06
2023-03-20T19:37:12.448Z,100900.53
2023-03-20T19:39:43.782Z,100918.16
2023-03-20T19:42:47.439Z,100822.41
2023-03-20T19:45:07.714Z,100888.28
2023-03-20T19:47:39.016Z,100898.84
2023-03-20T19:50:33.933Z,100901.50
2023-03-20T19:53:09.051Z,100826.94
2023-03-20T19:55:42.897Z,100848.91
2023-03-20T19:58:14.286Z,100894.56
2023-03-20T20:01:00.996Z,100874.34
2023-03-20T20:03:32.694Z,100915.63
2023-03-20T20:06:04.749Z,100906.88
2023-03-20T20:08:47.865Z,100821.72
2023-03-20T20:11:21.184Z,100914.78
2023-03-20T20:14:09.617Z,100893.69
2023-03-20T20:16:43.177Z,100909.47
2023-03-20T20:19:14.905Z,100828.66
2023-03-20T20:24:37.767Z,100890.13
2023-03-20T20:27:17.318Z,100886.59
2023-03-20T20:29:53.500Z,100821.59
2023-03-20T20:32:27.620Z,100850.56
2023-03-20T20:40:48.476Z,100905.03
2023-03-20T20:43:43.880Z,100809.41
2023-03-20T20:46:11.233Z,100907.84
2023-03-20T20:48:42.770Z,100890.28
2023-03-20T20:51:14.147Z,100900.88
2023-03-20T20:53:45.511Z,100895.56
2023-03-20T20:56:16.833Z,100882.38
2023-03-20T20:58:48.166Z,100902.59
2023-03-20T21:01:19.535Z,100897.28
2023-03-20T21:03:52.243Z,100894.63
2023-03-20T21:06:44.019Z,100852.50
2023-03-20T21:09:15.007Z,100899.94
2023-03-20T21:11:47.413Z,100893.81
2023-03-20T21:14:18.906Z,100907.03
2023-03-20T21:16:50.312Z,100861.38
2023-03-20T21:19:21.670Z,100848.19
2023-03-20T21:21:53.064Z,100812.16
2023-03-20T21:24:34.286Z,100921.06
2023-03-20T21:27:10.890Z,100887.69
2023-03-20T21:29:43.213Z,100917.56
2023-03-20T21:32:17.362Z,100899.16
2023-03-20T21:34:49.959Z,100857.00
2023-03-20T21:38:28.383Z,100853.53
2023-03-20T21:40:13.065Z,100913.22
2023-03-20T21:42:46.024Z,100891.28
2023-03-20T21:52:02.476Z,100901.84
2023-03-20T22:00:36.273Z,100913.28
2023-03-20T22:02:30.192Z,100891.31
2023-03-20T22:05:50.394Z,100860.59
2023-03-20T22:11:40.634Z,100906.22
2023-03-20T22:14:40.655Z,100899.28
2023-03-20T22:17:36.575Z,100887.81
2023-03-20T22:23:09.426Z,100896.56
2023-03-20T22:25:46.581Z,100887.75
2023-03-20T22:31:34.652Z,100902.75
2023-03-20T22:34:37.065Z,100874.69
2023-03-20T22:42:49.563Z,100886.94
2023-03-20T22:45:11.493Z,100809.66
2023-03-20T22:47:42.999Z,100809.63
2023-03-20T22:50:15.758Z,100800.84
2023-03-20T22:52:49.594Z,100876.34
2023-03-20T22:55:22.796Z,100854.38
2023-03-20T22:58:06.508Z,100885.13
2023-03-20T23:00:38.832Z,100889.53
2023-03-20T23:03:25.710Z,100902.69
2023-03-20T23:06:17.629Z,100880.72
2023-03-20T23:08:55.259Z,100800.84
2023-03-20T23:11:28.612Z,100796.41
2023-03-20T23:14:00.976Z,100848.22
2023-03-20T23:16:32.751Z,100859.59
2023-03-20T23:19:04.168Z,100871.00
2023-03-20T23:21:35.576Z,100848.19
2023-03-20T23:24:08.264Z,100873.59
2023-03-20T23:26:39.628Z,100858.69
2023-03-20T23:29:11.658Z,100867.44
2023-03-20T23:31:43.290Z,100868.31
2023-03-20T23:34:17.401Z,100781.41
2023-03-20T23:36:49.231Z,100862.16
2023-03-20T23:39:20.846Z,100865.69
2023-03-20T23:42:12.166Z,100851.63
2023-03-20T23:44:49.887Z,100869.16
2023-03-20T23:47:29.949Z,100814.72
2023-03-20T23:50:09.691Z,100855.09
2023-03-20T23:52:50.003Z,100849.81
2023-03-20T23:55:28.700Z,100855.94
2023-03-20T23:58:00.117Z,100853.31
